Verona, WI (53593)

5:23 PM CST on February 09, 2016 (GMT -0600)
Verona | | Change Station
CLOSE
Current Station
Personal Weather Station
Location: Verona, WI
Elevation: 984 ft
Nearby Weather Stations

Elev 984 ft 42.99 °N, 89.56 °W | Updated 2 minutes ago

Overcast
Overcast
12.7 °F
Feels Like 1 °F
N
8.9
Wind Variable Wind from NNE

Today
High -- | Low -- °F
--% Chance of Precip.
Yesterday
High -- | Low -- °F
Precip. -- in
Pressure 29.95 in
Visibility 10.0 miles
Clouds Overcast 3400 ft
Windchill 1 °F
Dew Point 4 °F
Humidity 68%
Rainfall 0.27 in
Snow Depth Not available.
7:04 AM 5:21 PM
New Moon, 3% visible
METAR KC29 092315Z AUTO 30011G18KT 10SM OVC034 M09/M15 A2995 RMK AO1 T10951155
Pressure 29.95 in
Visibility 10.0 miles
Clouds Overcast 3400 ft
Windchill 1 °F
Dew Point 4 °F
Humidity 68%
Rainfall 0.27 in
Snow Depth Not available.
7:04 AM 5:21 PM
New Moon, 3% visible
METAR KC29 092315Z AUTO 30011G18KT 10SM OVC034 M09/M15 A2995 RMK AO1 T10951155

10-Day Weather Forecast

Almanac

Astronomy

Feb. 09, 2016 Rise Set
Actual Time
Civil Twilight
Nautical Twilight
Astronomical Twilight
Moon
Length of Visible Light
Length of Day
Tomorrow will be .
, % of the Moon is Illuminated

Today's Extremes

State Highs State Lows

Community

WunderPhotos

Upload Photos

1,891,744 photos uploaded!

WunderBlog® & News

Nearby

Air Quality

  Air Quality AQ Index Pollutant
Not available.

Snow Depth

Station Depth Elevation

Earthquake Activity

City Distance Mag. Time & Date
Minimum magnitude displayed is 2.5.

Coastal Water Temperatures

Place Temperature

Stations

Nearby Weather Stations

Station Location Temp. Windchill Dew Point Humidity Wind Precip. Elev Updated Type
                   

Watches & Warnings

There are currently no watches in effect.